createdAt,value
2022-11-06T00:00:44.935Z,3.53
2022-11-06T00:03:13.619Z,3.85
2022-11-06T00:06:01.016Z,2.80
2022-11-06T00:08:32.411Z,2.97
2022-11-06T00:11:03.006Z,3.67
2022-11-06T00:13:32.253Z,3.10
2022-11-06T00:16:05.201Z,3.33
2022-11-06T00:18:33.918Z,3.10
2022-11-06T00:21:08.602Z,3.08
2022-11-06T00:23:37.592Z,2.97
2022-11-06T00:26:09.373Z,2.72
2022-11-06T00:28:38.251Z,4.03
2022-11-06T00:31:09.051Z,3.30
2022-11-06T00:33:38.319Z,3.35
2022-11-06T00:36:09.252Z,3.67
2022-11-06T00:38:38.105Z,4.07
2022-11-06T00:41:11.150Z,3.75
2022-11-06T00:43:39.904Z,3.53
2022-11-06T00:46:11.929Z,3.17
2022-11-06T00:48:42.054Z,3.42
2022-11-06T00:51:14.125Z,3.42
2022-11-06T00:53:43.150Z,3.03
2022-11-06T00:56:15.355Z,2.92
2022-11-06T00:58:44.460Z,3.30
2022-11-06T01:01:15.471Z,2.47
2022-11-06T01:03:46.841Z,3.20
2022-11-06T01:06:17.282Z,2.95
2022-11-06T01:08:47.215Z,3.17
2022-11-06T01:11:19.259Z,3.35
2022-11-06T01:13:51.181Z,3.45
2022-11-06T01:16:19.864Z,3.75
2022-11-06T01:18:49.161Z,4.15
2022-11-06T01:21:19.793Z,4.20
2022-11-06T01:23:52.998Z,4.55
2022-11-06T01:26:37.388Z,3.85
2022-11-06T01:29:10.205Z,3.33
2022-11-06T01:31:38.951Z,3.00
2022-11-06T01:34:07.731Z,2.42
2022-11-06T01:36:36.310Z,4.22
2022-11-06T01:39:08.548Z,2.83
2022-11-06T01:41:41.013Z,2.95
2022-11-06T01:45:11.873Z,3.72
2022-11-06T01:47:40.308Z,3.72
2022-11-06T01:50:11.473Z,3.42
2022-11-06T01:52:40.843Z,2.97
2022-11-06T01:55:22.113Z,3.95
2022-11-06T01:57:52.519Z,4.43
2022-11-06T02:00:21.403Z,3.97
2022-11-06T02:02:51.279Z,3.00
2022-11-06T02:05:19.877Z,3.05
2022-11-06T02:07:49.166Z,3.92
2022-11-06T02:10:17.978Z,3.33
2022-11-06T02:12:59.865Z,4.07
2022-11-06T02:15:45.387Z,3.25
2022-11-06T02:18:51.922Z,3.90
2022-11-06T02:22:04.892Z,3.70
2022-11-06T02:25:16.100Z,3.78
2022-11-06T02:27:50.807Z,3.65
2022-11-06T02:30:20.306Z,3.67
2022-11-06T02:32:55.639Z,4.43
2022-11-06T02:35:30.146Z,3.42
2022-11-06T02:38:04.784Z,3.85
2022-11-06T02:40:38.202Z,4.18
2022-11-06T02:43:09.973Z,3.75
2022-11-06T02:45:46.945Z,3.42
2022-11-06T02:48:19.701Z,3.60
2022-11-06T02:50:51.674Z,3.65
2022-11-06T02:53:26.039Z,4.95
2022-11-06T02:55:58.950Z,3.92
2022-11-06T02:58:38.935Z,3.72
2022-11-06T03:01:16.954Z,4.68
2022-11-06T03:03:51.986Z,3.40
2022-11-06T03:06:28.253Z,3.22
2022-11-06T03:09:03.754Z,3.38
2022-11-06T03:11:35.885Z,4.13
2022-11-06T03:14:14.015Z,3.97
2022-11-06T03:16:54.870Z,4.03
2022-11-06T03:19:29.149Z,3.60
2022-11-06T03:22:05.216Z,4.53
2022-11-06T03:24:41.696Z,4.07
2022-11-06T03:27:16.355Z,5.78
2022-11-06T03:29:50.580Z,4.35
2022-11-06T03:32:27.569Z,3.95
2022-11-06T03:35:03.874Z,4.13
2022-11-06T03:37:36.208Z,3.75
2022-11-06T03:40:12.904Z,3.47
2022-11-06T03:42:44.203Z,3.80
2022-11-06T03:45:20.299Z,4.47
2022-11-06T03:47:54.255Z,5.47
2022-11-06T03:50:28.753Z,4.72
2022-11-06T03:53:01.940Z,3.60
2022-11-06T03:55:36.524Z,4.78
2022-11-06T03:58:11.249Z,4.40
2022-11-06T04:00:44.591Z,4.90
2022-11-06T04:03:20.924Z,4.88
2022-11-06T04:05:54.928Z,4.25
2022-11-06T04:08:45.589Z,4.18
2022-11-06T04:11:37.237Z,4.45
2022-11-06T04:14:07.941Z,4.15
2022-11-06T04:16:40.886Z,5.90
2022-11-06T04:19:18.366Z,5.28
2022-11-06T04:22:14.799Z,5.78
2022-11-06T04:25:13.206Z,4.28
2022-11-06T04:28:00.932Z,4.57
2022-11-06T04:30:36.477Z,4.82
2022-11-06T04:33:15.714Z,5.40
2022-11-06T04:36:01.078Z,5.78
2022-11-06T04:38:39.666Z,3.95
2022-11-06T04:41:20.975Z,6.78
2022-11-06T04:43:54.328Z,4.85
2022-11-06T04:46:28.838Z,5.70
2022-11-06T04:49:00.043Z,4.80
2022-11-06T04:51:34.672Z,5.65
2022-11-06T04:54:03.633Z,7.75
2022-11-06T04:56:37.910Z,5.32
2022-11-06T04:59:11.935Z,5.32
2022-11-06T05:01:40.448Z,7.85
2022-11-06T05:04:10.695Z,4.78
2022-11-06T05:06:39.025Z,4.72
2022-11-06T05:09:07.461Z,5.57
2022-11-06T05:11:35.786Z,6.72
2022-11-06T05:14:04.140Z,6.43
2022-11-06T05:16:32.769Z,5.57
2022-11-06T05:19:01.155Z,6.50
2022-11-06T05:21:48.571Z,4.90
2022-11-06T05:24:16.968Z,3.88
2022-11-06T05:26:45.733Z,5.65
2022-11-06T05:29:16.447Z,6.25
2022-11-06T05:31:44.843Z,5.40
2022-11-06T05:34:13.722Z,7.15
2022-11-06T05:36:43.454Z,5.85
2022-11-06T05:39:12.021Z,5.05
2022-11-06T05:41:40.464Z,6.82
2022-11-06T05:44:08.964Z,7.85
2022-11-06T05:46:52.554Z,6.00
2022-11-06T05:49:21.069Z,5.57
2022-11-06T05:51:50.846Z,5.70
2022-11-06T05:54:19.222Z,6.35
2022-11-06T05:56:47.610Z,5.80
2022-11-06T05:59:16.095Z,5.00
2022-11-06T06:01:44.754Z,6.30
2022-11-06T06:04:13.243Z,5.35
2022-11-06T06:06:41.798Z,7.15
2022-11-06T06:09:11.524Z,5.53
2022-11-06T06:11:39.873Z,7.07
2022-11-06T06:14:08.327Z,6.45
2022-11-06T06:16:36.889Z,5.70
2022-11-06T06:19:05.292Z,7.28
2022-11-06T06:21:33.648Z,6.03
2022-11-06T06:24:01.998Z,6.65
2022-11-06T06:26:31.899Z,5.95
2022-11-06T06:29:02.189Z,6.30
2022-11-06T06:31:30.807Z,5.70
2022-11-06T06:33:59.181Z,6.63
2022-11-06T06:36:27.545Z,6.22
2022-11-06T06:38:56.636Z,6.43
2022-11-06T06:41:24.977Z,5.97
2022-11-06T06:43:54.778Z,5.38
2022-11-06T06:46:23.079Z,5.43
2022-11-06T06:48:51.750Z,6.75
2022-11-06T06:51:23.908Z,5.20
2022-11-06T06:53:52.780Z,5.10
2022-11-06T06:56:21.211Z,5.63
2022-11-06T06:58:49.816Z,3.53
2022-11-06T07:01:19.639Z,5.03
2022-11-06T07:03:48.085Z,5.15
2022-11-06T07:06:18.791Z,4.20
2022-11-06T07:08:47.561Z,4.85
2022-11-06T07:11:15.941Z,5.10
2022-11-06T07:13:44.285Z,3.50
2022-11-06T07:16:13.747Z,4.88
2022-11-06T07:18:43.538Z,3.10
2022-11-06T07:21:14.032Z,2.92
2022-11-06T07:23:42.800Z,3.47
2022-11-06T07:26:11.236Z,4.05
2022-11-06T07:28:39.695Z,4.45
2022-11-06T07:31:09.292Z,3.92
2022-11-06T07:33:37.826Z,3.78
2022-11-06T07:36:10.549Z,4.25
2022-11-06T07:38:40.473Z,3.13
2022-11-06T07:41:11.355Z,3.15
2022-11-06T07:43:40.678Z,3.35
2022-11-06T07:46:12.122Z,3.78
2022-11-06T07:48:40.940Z,4.78
2022-11-06T07:51:12.499Z,2.17
2022-11-06T07:53:41.339Z,2.80
2022-11-06T07:56:10.252Z,2.53
2022-11-06T07:58:39.125Z,2.95
2022-11-06T08:01:08.073Z,3.40
2022-11-06T08:03:36.455Z,4.18
2022-11-06T08:06:06.211Z,2.58
2022-11-06T08:08:35.994Z,3.55
2022-11-06T08:11:04.869Z,2.38
2022-11-06T08:13:35.440Z,2.03
2022-11-06T08:16:08.902Z,2.58
2022-11-06T08:18:37.653Z,3.17
2022-11-06T08:21:07.172Z,2.35
2022-11-06T08:23:37.600Z,2.83
2022-11-06T08:26:07.677Z,2.83
2022-11-06T08:28:36.402Z,2.75
2022-11-06T08:31:09.161Z,2.67
2022-11-06T08:33:39.497Z,4.78
2022-11-06T08:36:10.581Z,3.08
2022-11-06T08:38:40.899Z,3.35
2022-11-06T08:41:11.353Z,3.42
2022-11-06T08:43:40.483Z,3.65
2022-11-06T08:46:10.825Z,2.75
2022-11-06T08:48:39.351Z,3.47
2022-11-06T08:51:08.562Z,2.72
2022-11-06T08:53:37.302Z,3.40
2022-11-06T08:56:08.331Z,2.38
2022-11-06T08:58:37.165Z,2.67
2022-11-06T09:01:05.651Z,2.03
2022-11-06T09:03:34.083Z,1.92
2022-11-06T09:06:02.679Z,3.22
2022-11-06T09:08:31.034Z,2.38
2022-11-06T09:10:59.909Z,1.88
2022-11-06T09:13:29.622Z,2.03
2022-11-06T09:15:57.991Z,2.83
2022-11-06T09:18:26.358Z,2.00
2022-11-06T09:20:57.040Z,2.75
2022-11-06T09:23:26.407Z,2.80
2022-11-06T09:25:54.815Z,2.00
2022-11-06T09:28:23.142Z,1.73
2022-11-06T09:30:52.887Z,2.25
2022-11-06T09:33:21.709Z,1.77
2022-11-06T09:35:50.197Z,2.38
2022-11-06T09:38:19.196Z,2.85
2022-11-06T09:40:52.629Z,2.40
2022-11-06T09:44:03.586Z,1.50
2022-11-06T09:46:28.316Z,1.52
2022-11-06T09:49:01.811Z,2.05
2022-11-06T09:51:38.150Z,1.50
2022-11-06T09:54:16.201Z,2.65
2022-11-06T09:56:49.419Z,2.75
2022-11-06T09:59:20.678Z,1.83
2022-11-06T10:01:55.513Z,1.70
2022-11-06T10:04:37.614Z,2.33
2022-11-06T10:07:06.216Z,1.42
2022-11-06T10:09:35.232Z,2.25
2022-11-06T10:12:21.659Z,1.75
2022-11-06T10:15:05.446Z,1.23
2022-11-06T10:17:52.001Z,1.95
2022-11-06T10:20:27.316Z,2.25
2022-11-06T10:23:06.831Z,2.67
2022-11-06T10:25:47.959Z,2.65
2022-11-06T10:28:43.370Z,2.45
2022-11-06T10:31:24.855Z,1.60
2022-11-06T10:34:01.408Z,1.92
2022-11-06T10:36:37.217Z,2.05
2022-11-06T10:39:13.543Z,1.77
2022-11-06T10:41:44.949Z,2.38
2022-11-06T10:44:23.504Z,1.63
2022-11-06T10:46:57.316Z,1.90
2022-11-06T10:49:36.507Z,1.98
2022-11-06T10:52:38.794Z,1.67
2022-11-06T10:55:49.786Z,2.13
2022-11-06T10:58:22.603Z,2.55
2022-11-06T11:00:52.573Z,2.22
2022-11-06T11:03:28.213Z,1.23
2022-11-06T11:05:58.748Z,1.80
2022-11-06T11:08:42.624Z,2.20
2022-11-06T11:11:24.680Z,1.70
2022-11-06T11:14:15.087Z,2.38
2022-11-06T11:16:46.943Z,1.70
2022-11-06T11:19:28.412Z,1.83
2022-11-06T11:22:01.419Z,2.35
2022-11-06T11:24:30.611Z,2.17
2022-11-06T11:27:04.061Z,2.03
2022-11-06T11:29:35.844Z,1.85
2022-11-06T11:32:08.276Z,2.15
2022-11-06T11:34:49.396Z,1.33
2022-11-06T11:37:28.490Z,1.20
2022-11-06T11:40:18.096Z,1.73
2022-11-06T11:42:46.945Z,2.20
2022-11-06T11:45:20.193Z,1.00
2022-11-06T11:47:52.441Z,1.95
2022-11-06T11:50:30.736Z,1.50
2022-11-06T11:53:10.525Z,1.45
2022-11-06T11:55:45.464Z,1.00
2022-11-06T11:58:24.049Z,1.17
2022-11-06T12:00:57.164Z,1.60
2022-11-06T12:03:29.525Z,1.52
2022-11-06T12:06:11.365Z,3.28
2022-11-06T12:08:47.269Z,1.48
2022-11-06T12:11:22.298Z,1.90
2022-11-06T12:14:33.706Z,1.08
2022-11-06T12:17:16.201Z,1.20
2022-11-06T12:19:53.354Z,1.08
2022-11-06T12:22:29.569Z,1.02
2022-11-06T12:25:08.730Z,1.50
2022-11-06T12:27:42.276Z,1.40
2022-11-06T12:30:15.917Z,1.58
2022-11-06T12:33:10.981Z,0.82
2022-11-06T12:35:43.862Z,0.85
2022-11-06T12:38:28.237Z,1.00
2022-11-06T12:41:04.425Z,0.80
2022-11-06T12:43:43.159Z,1.05
2022-11-06T12:46:32.274Z,1.13
2022-11-06T12:50:03.566Z,1.20
2022-11-06T12:53:00.789Z,2.22
2022-11-06T12:55:36.315Z,1.30
2022-11-06T12:58:30.740Z,1.27
2022-11-06T13:01:10.174Z,0.98
2022-11-06T13:04:04.821Z,1.92
2022-11-06T13:07:03.221Z,1.35
2022-11-06T13:09:39.668Z,1.08
2022-11-06T13:12:17.666Z,0.90
2022-11-06T13:15:04.166Z,1.00
2022-11-06T13:17:42.072Z,1.65
2022-11-06T13:20:23.818Z,1.67
2022-11-06T13:23:01.734Z,1.48
2022-11-06T13:25:41.132Z,1.27
2022-11-06T13:28:29.956Z,1.27
2022-11-06T13:31:03.787Z,1.33
2022-11-06T13:33:41.410Z,2.30
2022-11-06T13:36:11.222Z,1.15
2022-11-06T13:38:47.100Z,0.80
2022-11-06T13:41:20.623Z,1.15
2022-11-06T13:43:56.950Z,2.03
2022-11-06T13:46:39.660Z,1.90
2022-11-06T13:49:23.724Z,1.75
2022-11-06T13:51:56.248Z,1.23
2022-11-06T13:54:47.902Z,1.20
2022-11-06T13:58:07.147Z,1.70
2022-11-06T14:00:50.044Z,1.20
2022-11-06T14:04:09.718Z,2.35
2022-11-06T14:06:40.676Z,1.65
2022-11-06T14:09:17.189Z,1.48
2022-11-06T14:11:52.911Z,1.33
2022-11-06T14:14:28.480Z,1.17
2022-11-06T14:17:21.950Z,1.80
2022-11-06T14:20:32.651Z,1.67
2022-11-06T14:23:48.029Z,1.10
2022-11-06T14:26:46.456Z,1.58
2022-11-06T14:29:59.120Z,1.75
2022-11-06T14:32:44.288Z,1.50
2022-11-06T14:35:54.122Z,1.75
2022-11-06T14:38:44.109Z,1.42
2022-11-06T14:42:01.988Z,1.83
2022-11-06T14:44:50.594Z,1.63
2022-11-06T14:47:35.548Z,1.38
2022-11-06T14:50:29.128Z,2.60
2022-11-06T14:53:06.718Z,2.05
2022-11-06T14:55:45.009Z,2.55
2022-11-06T14:58:19.987Z,1.58
2022-11-06T15:00:56.067Z,2.03
2022-11-06T15:03:31.891Z,1.58
2022-11-06T15:06:07.908Z,1.83
2022-11-06T15:09:00.411Z,2.00
2022-11-06T15:11:58.589Z,2.28
2022-11-06T15:15:01.853Z,1.40
2022-11-06T15:17:37.939Z,2.28
2022-11-06T15:20:25.006Z,2.40
2022-11-06T15:23:42.570Z,1.98
2022-11-06T15:26:26.483Z,2.95
2022-11-06T15:29:13.851Z,2.58
2022-11-06T15:31:45.790Z,1.90
2022-11-06T15:34:21.120Z,1.70
2022-11-06T15:36:58.150Z,1.83
2022-11-06T15:39:40.899Z,2.47
2022-11-06T15:42:17.094Z,3.05
2022-11-06T15:44:48.631Z,2.45
2022-11-06T15:47:26.309Z,2.38
2022-11-06T15:50:15.916Z,2.35
2022-11-06T15:52:46.955Z,2.40
2022-11-06T15:55:23.661Z,2.55
2022-11-06T15:57:54.711Z,2.05
2022-11-06T16:00:28.712Z,2.28
2022-11-06T16:03:03.934Z,2.70
2022-11-06T16:05:37.095Z,2.58
2022-11-06T16:08:07.898Z,1.95
2022-11-06T16:10:40.687Z,1.67
2022-11-06T16:13:14.077Z,2.13
2022-11-06T16:15:54.408Z,2.30
2022-11-06T16:18:31.572Z,2.70
2022-11-06T16:23:57.466Z,2.58
2022-11-06T16:26:38.302Z,2.33
2022-11-06T16:29:19.558Z,2.20
2022-11-06T16:31:50.019Z,3.80
2022-11-06T16:34:34.819Z,3.03
2022-11-06T16:37:05.590Z,2.38
2022-11-06T16:39:50.196Z,2.95
2022-11-06T16:42:40.841Z,3.13
2022-11-06T16:45:24.499Z,2.53
2022-11-06T16:48:32.181Z,4.00
2022-11-06T16:51:15.317Z,4.68
2022-11-06T16:53:58.520Z,4.75
2022-11-06T16:56:32.339Z,4.90
2022-11-06T16:59:07.269Z,4.03
2022-11-06T17:01:44.951Z,4.32
2022-11-06T17:04:23.087Z,4.55
2022-11-06T17:06:59.827Z,3.17
2022-11-06T17:09:35.043Z,4.82
2022-11-06T17:12:11.964Z,3.35
2022-11-06T17:14:45.602Z,4.30
2022-11-06T17:17:30.267Z,7.43
2022-11-06T17:19:59.967Z,6.03
2022-11-06T17:22:31.770Z,6.43
2022-11-06T17:25:01.930Z,5.63
2022-11-06T17:27:31.493Z,4.05
2022-11-06T17:30:03.875Z,5.40
2022-11-06T17:32:35.838Z,3.88
2022-11-06T17:35:06.729Z,3.92
2022-11-06T17:37:38.701Z,3.08
2022-11-06T17:40:10.348Z,4.97
2022-11-06T17:42:40.182Z,3.78
2022-11-06T17:45:11.028Z,4.22
2022-11-06T17:47:42.702Z,3.75
2022-11-06T17:50:13.385Z,2.83
2022-11-06T17:52:43.721Z,3.03
2022-11-06T17:55:13.314Z,10.82
2022-11-06T17:57:44.218Z,8.38
2022-11-06T18:00:15.287Z,5.90
2022-11-06T18:03:00.891Z,6.20
2022-11-06T18:05:32.572Z,17.52
2022-11-06T18:08:02.552Z,10.82
2022-11-06T18:10:41.859Z,5.07
2022-11-06T18:13:12.808Z,4.13
2022-11-06T18:15:42.796Z,7.20
2022-11-06T18:18:17.380Z,5.95
2022-11-06T18:20:48.006Z,7.07
2022-11-06T18:23:19.999Z,7.22
2022-11-06T18:25:59.064Z,8.75
2022-11-06T18:28:29.316Z,10.82
2022-11-06T18:31:01.674Z,7.00
2022-11-06T18:33:33.132Z,4.68
2022-11-06T18:36:03.745Z,4.78
2022-11-06T18:38:34.381Z,5.50
2022-11-06T18:41:13.569Z,6.03
2022-11-06T18:43:49.776Z,4.40
2022-11-06T18:46:21.587Z,6.38
2022-11-06T18:48:54.483Z,4.40
2022-11-06T18:51:35.103Z,4.90
2022-11-06T18:54:09.334Z,5.13
2022-11-06T18:56:40.362Z,4.75
2022-11-06T18:59:15.560Z,4.55
2022-11-06T19:01:46.539Z,4.55
2022-11-06T19:04:17.965Z,4.63
2022-11-06T19:06:48.300Z,4.32
2022-11-06T19:09:19.853Z,4.10
2022-11-06T19:11:52.016Z,4.85
2022-11-06T19:14:22.719Z,5.03
2022-11-06T19:16:53.861Z,5.43
2022-11-06T19:19:26.223Z,5.60
2022-11-06T19:21:56.226Z,4.70
2022-11-06T19:24:26.864Z,4.28
2022-11-06T19:26:57.474Z,4.28
2022-11-06T19:29:28.135Z,4.00
2022-11-06T19:32:02.552Z,3.92
2022-11-06T19:34:38.883Z,8.40
2022-11-06T19:37:13.312Z,16.73
2022-11-06T19:39:43.318Z,6.35
2022-11-06T19:42:16.613Z,4.43
2022-11-06T19:44:47.351Z,4.18
2022-11-06T19:47:18.576Z,4.30
2022-11-06T19:49:51.174Z,4.93
2022-11-06T19:52:42.509Z,4.85
2022-11-06T19:55:26.097Z,4.25
2022-11-06T19:58:00.384Z,5.70
2022-11-06T20:00:32.526Z,7.82
2022-11-06T20:03:03.953Z,5.00
2022-11-06T20:05:40.836Z,4.55
2022-11-06T20:08:12.543Z,4.30
2022-11-06T20:10:43.246Z,5.03
2022-11-06T20:13:14.439Z,4.00
2022-11-06T20:15:44.903Z,4.20
2022-11-06T20:18:18.889Z,4.05
2022-11-06T20:20:51.809Z,3.38
2022-11-06T20:23:22.280Z,4.55
2022-11-06T20:25:55.374Z,5.15
2022-11-06T20:28:26.670Z,3.13
2022-11-06T20:30:57.949Z,4.07
2022-11-06T20:33:31.846Z,3.22
2022-11-06T20:36:16.947Z,3.78
2022-11-06T20:38:47.555Z,3.30
2022-11-06T20:41:18.939Z,4.47
2022-11-06T20:43:52.319Z,3.40
2022-11-06T20:46:29.724Z,2.22
2022-11-06T20:48:59.799Z,2.28
2022-11-06T20:51:42.890Z,3.05
2022-11-06T20:54:25.034Z,4.43
2022-11-06T20:56:55.216Z,3.03
2022-11-06T20:59:25.589Z,2.80
2022-11-06T21:01:55.704Z,3.92
2022-11-06T21:04:26.828Z,2.97
2022-11-06T21:06:58.928Z,4.53
2022-11-06T21:09:28.518Z,3.30
2022-11-06T21:11:58.309Z,3.35
2022-11-06T21:14:27.843Z,3.42
2022-11-06T21:16:59.128Z,3.33
2022-11-06T21:19:30.273Z,2.80
2022-11-06T21:22:01.304Z,2.72
2022-11-06T21:24:30.200Z,3.85
2022-11-06T21:26:59.664Z,2.78
2022-11-06T21:29:28.083Z,2.90
2022-11-06T21:31:58.258Z,4.40
2022-11-06T21:34:27.940Z,6.57
2022-11-06T21:37:02.139Z,4.63
2022-11-06T21:39:36.267Z,3.50
2022-11-06T21:42:05.978Z,4.93
2022-11-06T21:44:35.434Z,4.45
2022-11-06T21:47:04.110Z,4.65
2022-11-06T21:49:32.801Z,4.25
2022-11-06T21:52:25.169Z,3.65
2022-11-06T21:55:15.856Z,4.25
2022-11-06T21:57:44.209Z,4.68
2022-11-06T22:00:14.929Z,4.25
2022-11-06T22:02:43.553Z,4.07
2022-11-06T22:05:12.383Z,4.68
2022-11-06T22:07:40.746Z,4.32
2022-11-06T22:10:11.488Z,4.22
2022-11-06T22:12:39.920Z,2.88
2022-11-06T22:15:10.802Z,4.07
2022-11-06T22:17:39.220Z,4.32
2022-11-06T22:20:09.225Z,11.95
2022-11-06T22:22:37.544Z,7.80
2022-11-06T22:25:07.595Z,7.65
2022-11-06T22:27:40.913Z,4.80
2022-11-06T22:30:11.640Z,3.72
2022-11-06T22:32:39.986Z,3.97
2022-11-06T22:35:09.288Z,4.25
2022-11-06T22:37:37.611Z,3.78
2022-11-06T22:40:08.029Z,3.53
2022-11-06T22:42:37.791Z,4.18
2022-11-06T22:45:08.350Z,4.68
2022-11-06T22:47:36.815Z,3.50
2022-11-06T22:50:08.311Z,3.38
2022-11-06T22:52:36.677Z,3.72
2022-11-06T22:55:06.221Z,4.53
2022-11-06T22:57:34.722Z,3.42
2022-11-06T23:00:06.493Z,3.38
2022-11-06T23:02:35.584Z,3.78
2022-11-06T23:05:04.087Z,2.95
2022-11-06T23:07:32.441Z,3.38
2022-11-06T23:10:00.791Z,2.97
2022-11-06T23:12:29.132Z,3.83
2022-11-06T23:14:58.622Z,4.30
2022-11-06T23:17:29.312Z,6.00
2022-11-06T23:19:57.852Z,4.40
2022-11-06T23:22:42.863Z,7.60
2022-11-06T23:25:12.516Z,5.85
2022-11-06T23:27:48.591Z,5.68
2022-11-06T23:30:18.441Z,5.75
2022-11-06T23:32:48.586Z,6.35
2022-11-06T23:35:18.294Z,6.60
2022-11-06T23:37:47.876Z,5.78
2022-11-06T23:40:16.314Z,5.45
2022-11-06T23:42:44.649Z,4.70
2022-11-06T23:45:31.263Z,6.47
2022-11-06T23:48:05.867Z,5.63
2022-11-06T23:50:36.718Z,5.63
2022-11-06T23:53:05.100Z,5.10
2022-11-06T23:55:33.590Z,5.63
2022-11-06T23:58:01.974Z,6.50
